Airfield :
LOGIN :

Register | Disclaimer

   EN    FR    IT 

 










Legend :    VFR   Marginal VFR   IFR   Intensive IFR   Very Intensive IFR
Visi :
Ceiling :
>= 8 km
>= 3000ft
5 to 8 km
1000 to 3000 ft
1500m to 5 km
500 to 1000 ft
800 to 1500m
200 to 500 ft
< 800m
< 200 ft
Symbols :   Thunderstorms  Fog  Heavy snow  Heavy precipitations  Wind > 20 kt
SIGMETs :     Misc.  Thunderstorms  Icing  Turbulence  Mountain Waves  Volcanic Ashes







- Airport Elevation : 364 ft
- IATA code : FRA


EDDF - Frankfurt Int.

CURRENT METAR :
  • 211020Z 22006KT 9999 FEW018 BKN025 04/M00 Q1015 R88/2///95 NOSIG

EXPIRED METARs :
  • 210950Z 22006KT 9999 FEW018 BKN023 03/M00 Q1015 R88/2///95 NOSIG
  • 210920Z 20004KT 160V250 9999 FEW018 BKN023 03/M00 Q1015 R88/2///95 NOSIG
  • 210850Z 19005KT 9999 FEW017 BKN021 02/M00 Q1014 R88/2///95 NOSIG
  • 210820Z 23005KT 200V260 9999 FEW017 BKN021 02/M01 Q1014 R88/2///95 NOSIG
  • 210750Z 19005KT 160V240 9999 FEW017 SCT023 01/M00 Q1013 R88/2///95 NOSIG

TAF TAF EDDF
Valid from the 21 at 06:00 until the 22 at 12:00 UTC


210500Z 2106/2212 29008KT 9000 BKN020
PROB30
TEMPO 2106/2108 4500 -SNRA BR BKN012
BECMG 2108/2111 SCT015
BECMG 2119/2121 16004KT
BECMG 2121/2201 3500 -SN BKN007
TEMPO 2200/2208 1200 SN BKN004
PROB30
TEMPO 2205/2208 -FZRA
BECMG 2208/2210 8000 BKN020
No reported NOTAMs for that airfield.
1 SIGMET reported for the Langen FIR (EDGG) :
 
Severe icing
EDGG SIGMET 1 VALID 210930/211200 EDZF
EDGG LANGEN FIR SEV ICE OBS WI N4922 E01057 - N4838 E00942 - N4808 E00936 - N4742 E00728 - N4742 E00725 - N4843 E00750 - N4922 E01057 4000FT/FL070 MOV SE WKN=



MET'MAP, your aeronautical weather chart ! - Copyright ORBIFLY December 2007 - Disclaimer

ORBIFLY MET'MAP TEAM :

Programming & Development : Alexandra Zaïnal
Concept & Development : Baudouin d'Aumeries
Co-Development & Prog : Marc-Olivier Méhu
Technical & hardware support : Manuel Goepfert

Contact : metmap@orbifly.com




SOURCES & CREDITS :

   NOAA